Time;durP1;ratioP1;P1;durP2;ratioP2;P2;SDS_P1;SDS_P2;PMS_P1;PMS_P2;Temp;Humidity;BMP_temperature;BMP_pressure;BME280_temperature;BME280_humidity;BME280_pressure;Samples;Min_cycle;Max_cycle;Signal;HPM_P1;HPM_P2
2023/02/28 00:00:18;;;;;;;7.47;4.63;;;;;;;-1.69;100.00;102136.84;681610;29;1014;-65
2023/02/28 00:00:39;;;;;;;7.50;4.40;;;;;;;-1.69;100.00;102141.97;683488;28;869;-65
2023/02/28 00:00:59;;;;;;;7.05;4.40;;;;;;;-1.71;100.00;102144.44;685954;28;4588;-66
2023/02/28 00:01:20;;;;;;;7.97;4.30;;;;;;;-1.70;100.00;102151.38;690275;28;956;-65
2023/02/28 00:01:41;;;;;;;6.43;4.10;;;;;;;-1.72;100.00;102143.56;689853;28;1042;-66
2023/02/28 00:02:01;;;;;;;6.83;4.00;;;;;;;-1.70;100.00;102141.09;690068;28;1011;-65
2023/02/28 00:02:21;;;;;;;6.17;3.90;;;;;;;-1.74;100.00;102140.00;689757;28;1203;-64
2023/02/28 00:02:43;;;;;;;6.25;3.90;;;;;;;-1.76;100.00;102136.44;687804;28;885;-65
2023/02/28 00:03:03;;;;;;;7.28;4.00;;;;;;;-1.76;100.00;102139.00;688442;28;903;-66
2023/02/28 00:03:24;;;;;;;6.22;3.70;;;;;;;-1.77;100.00;102139.78;687966;28;967;-66
2023/02/28 00:03:44;;;;;;;6.80;3.83;;;;;;;-1.76;100.00;102140.66;686580;28;4659;-64
2023/02/28 00:04:04;;;;;;;6.28;3.80;;;;;;;-1.75;100.00;102139.91;687655;28;1062;-65
2023/02/28 00:04:25;;;;;;;6.37;3.73;;;;;;;-1.71;100.00;102147.88;687870;28;1299;-65
2023/02/28 00:04:52;;;;;;;6.18;3.60;;;;;;;-1.70;100.00;102141.09;687789;28;901;-65
2023/02/28 00:05:15;;;;;;;5.90;3.70;;;;;;;-1.73;100.00;102134.09;687970;28;1027;-65
2023/02/28 00:05:36;;;;;;;7.18;3.63;;;;;;;-1.73;100.00;102136.66;684637;28;2142;-64
2023/02/28 00:05:56;;;;;;;7.18;3.53;;;;;;;-1.73;100.00;102139.22;685867;28;2295;-66
2023/02/28 00:06:17;;;;;;;6.87;3.60;;;;;;;-1.75;100.00;102145.91;689593;28;1229;-65
2023/02/28 00:06:37;;;;;;;7.60;3.80;;;;;;;-1.79;100.00;102141.34;690046;28;932;-65
2023/02/28 00:06:58;;;;;;;7.93;4.00;;;;;;;-1.78;100.00;102145.69;689434;28;4355;-65
2023/02/28 00:07:19;;;;;;;6.47;3.87;;;;;;;-1.69;100.00;102144.56;690491;28;1981;-65
2023/02/28 00:07:40;;;;;;;6.38;3.70;;;;;;;-1.72;100.00;102138.44;690090;28;959;-65
2023/02/28 00:08:00;;;;;;;5.97;3.50;;;;;;;-1.70;100.00;102141.09;686663;28;1012;-65
2023/02/28 00:08:21;;;;;;;6.60;3.80;;;;;;;-1.71;100.00;102141.88;686826;28;868;-65
2023/02/28 00:08:41;;;;;;;6.28;3.70;;;;;;;-1.71;100.00;102141.88;686266;28;902;-65
2023/02/28 00:09:02;;;;;;;5.77;3.60;;;;;;;-1.72;100.00;102142.66;686003;28;972;-64
2023/02/28 00:09:22;;;;;;;6.68;3.95;;;;;;;-1.69;100.00;102147.13;687459;28;1213;-65
2023/02/28 00:09:42;;;;;;;7.70;4.10;;;;;;;-1.69;100.00;102145.44;685285;28;4360;-64
2023/02/28 00:10:06;;;;;;;6.80;4.10;;;;;;;-1.71;100.00;102147.00;688124;28;1171;-64
2023/02/28 00:10:29;;;;;;;7.18;4.65;;;;;;;-1.68;100.00;102146.34;687944;28;973;-65
2023/02/28 00:10:49;;;;;;;7.13;5.38;;;;;;;-1.71;100.00;102140.19;686836;28;878;-64
2023/02/28 00:11:13;;;;;;;7.72;6.22;;;;;;;-1.70;100.00;102146.22;685114;28;881;-65
2023/02/28 00:11:33;;;;;;;6.47;5.30;;;;;;;-1.72;100.00;102147.78;684903;28;1691;-65
2023/02/28 00:11:54;;;;;;;7.47;5.17;;;;;;;-1.75;100.00;102138.19;684123;28;1004;-65
2023/02/28 00:12:14;;;;;;;7.73;5.70;;;;;;;-1.74;100.00;102144.25;685128;28;1068;-65
2023/02/28 00:12:35;;;;;;;6.75;5.80;;;;;;;-1.75;100.00;102140.78;685745;28;865;-64
2023/02/28 00:13:01;;;;;;;8.13;5.80;;;;;;;-1.76;100.00;102144.16;686587;28;4422;-64
2023/02/28 00:13:21;;;;;;;7.20;5.47;;;;;;;-1.76;100.00;102150.91;688104;28;1007;-64
2023/02/28 00:13:47;;;;;;;6.97;5.90;;;;;;;-1.77;100.00;102144.03;687908;28;948;-64
2023/02/28 00:14:08;;;;;;;8.38;5.95;;;;;;;-1.78;100.00;102149.94;687643;28;1235;-64
2023/02/28 00:14:30;;;;;;;7.97;6.13;;;;;;;-1.79;100.00;102148.16;690503;28;919;-64
2023/02/28 00:14:50;;;;;;;8.25;6.30;;;;;;;-1.82;100.00;102143.69;690184;28;1099;-64
2023/02/28 00:15:11;;;;;;;7.43;6.25;;;;;;;-1.83;100.00;102136.78;690729;28;926;-64
2023/02/28 00:15:32;;;;;;;9.03;6.10;;;;;;;-1.84;100.00;102147.84;690497;28;1023;-64
2023/02/28 00:16:08;;;;;;;8.93;5.97;;;;;;;-1.84;100.00;102142.72;689202;28;4354;-64
2023/02/28 00:16:28;;;;;;;7.78;5.70;;;;;;;-1.81;100.00;102137.78;687152;28;932;-64
2023/02/28 00:16:48;;;;;;;7.78;5.60;;;;;;;-1.81;100.00;102144.59;687475;28;956;-64
2023/02/28 00:17:09;;;;;;;6.77;5.50;;;;;;;-1.82;100.00;102146.25;688317;28;910;-64
2023/02/28 00:17:29;;;;;;;6.53;5.30;;;;;;;-1.79;100.00;102140.47;688057;28;778;-64
2023/02/28 00:17:50;;;;;;;7.03;5.10;;;;;;;-1.80;100.00;102144.72;687686;28;1261;-64
2023/02/28 00:18:11;;;;;;;6.35;5.03;;;;;;;-1.81;100.00;102142.94;687758;28;964;-65
2023/02/28 00:18:32;;;;;;;7.60;5.25;;;;;;;-1.81;100.00;102140.34;688033;28;935;-64
2023/02/28 00:18:52;;;;;;;7.35;4.80;;;;;;;-1.83;100.00;102141.91;686876;28;4296;-64
2023/02/28 00:19:13;;;;;;;6.70;4.70;;;;;;;-1.84;100.00;102146.94;687832;28;908;-64
2023/02/28 00:19:33;;;;;;;5.93;4.32;;;;;;;-1.86;100.00;102143.41;687679;28;1070;-64
2023/02/28 00:19:54;;;;;;;6.37;4.10;;;;;;;-1.86;100.00;102138.25;687740;28;889;-64
2023/02/28 00:20:15;;;;;;;6.03;3.87;;;;;;;-1.86;100.00;102143.41;687720;28;804;-64
2023/02/28 00:20:35;;;;;;;6.32;4.25;;;;;;;-1.82;100.00;102143.69;687531;28;1010;-64
2023/02/28 00:20:56;;;;;;;6.90;4.10;;;;;;;-1.80;100.00;102142.16;687722;28;935;-64
2023/02/28 00:21:18;;;;;;;7.20;3.75;;;;;;;-1.74;100.00;102144.25;688111;28;1000;-64
2023/02/28 00:21:40;;;;;;;6.72;3.97;;;;;;;-1.75;100.00;102138.19;687901;28;963;-64
2023/02/28 00:22:01;;;;;;;6.93;4.00;;;;;;;-1.73;100.00;102140.88;686007;28;5080;-64
2023/02/28 00:22:22;;;;;;;7.27;4.37;;;;;;;-1.75;100.00;102142.47;685990;28;1010;-64
2023/02/28 00:22:45;;;;;;;6.95;4.20;;;;;;;-1.77;100.00;102149.16;687167;28;1190;-64
2023/02/28 00:23:05;;;;;;;7.05;3.92;;;;;;;-1.80;100.00;102144.72;687063;28;3461;-64
2023/02/28 00:23:27;;;;;;;6.30;4.03;;;;;;;-1.81;100.00;102139.47;681786;28;1359;-64
2023/02/28 00:23:47;;;;;;;6.45;4.28;;;;;;;-1.81;100.00;102144.59;682192;28;917;-64
2023/02/28 00:24:08;;;;;;;6.87;4.30;;;;;;;-1.81;100.00;102142.94;685191;28;948;-63
2023/02/28 00:24:28;;;;;;;6.23;4.03;;;;;;;-1.83;100.00;102141.91;682873;28;1345;-64
2023/02/28 00:24:48;;;;;;;6.47;4.03;;;;;;;-1.84;100.00;102140.16;682038;28;4603;-64
2023/02/28 00:25:11;;;;;;;6.65;4.05;;;;;;;-1.86;100.00;102144.28;681961;28;841;-64
2023/02/28 00:25:31;;;;;;;7.32;4.30;;;;;;;-1.84;100.00;102136.69;687178;28;884;-64
2023/02/28 00:25:52;;;;;;;7.20;4.45;;;;;;;-1.86;100.00;102141.72;685055;28;987;-64
2023/02/28 00:26:12;;;;;;;6.10;4.10;;;;;;;-1.86;100.00;102143.41;685272;28;1060;-64
2023/02/28 00:26:36;;;;;;;6.35;4.32;;;;;;;-1.89;100.00;102144.94;685600;28;1215;-64
2023/02/28 00:26:56;;;;;;;6.90;4.40;;;;;;;-1.89;100.00;102141.50;684752;28;1131;-64
2023/02/28 00:27:16;;;;;;;6.50;4.40;;;;;;;-1.88;100.00;102140.72;685267;28;1922;-64
2023/02/28 00:27:41;;;;;;;6.70;4.60;;;;;;;-1.87;100.00;102142.47;683603;28;862;-64
2023/02/28 00:28:01;;;;;;;7.03;5.13;;;;;;;-1.88;100.00;102143.28;684414;28;4800;-64
2023/02/28 00:28:22;;;;;;;6.33;4.70;;;;;;;-1.88;100.00;102144.16;682632;28;1320;-63
2023/02/28 00:28:42;;;;;;;6.60;4.40;;;;;;;-1.90;100.00;102144.84;685083;28;992;-64
2023/02/28 00:29:02;;;;;;;7.33;4.67;;;;;;;-1.92;100.00;102141.28;687840;28;1612;-64
2023/02/28 00:29:24;;;;;;;7.45;5.65;;;;;;;-1.92;100.00;102139.59;687796;28;813;-64
2023/02/28 00:29:46;;;;;;;7.40;6.22;;;;;;;-1.93;100.00;102140.38;687684;28;1083;-64
2023/02/28 00:30:10;;;;;;;7.53;6.30;;;;;;;-1.94;100.00;102141.19;685164;28;1338;-63
2023/02/28 00:30:31;;;;;;;8.15;6.32;;;;;;;-1.95;100.00;102135.94;686564;28;1008;-64
2023/02/28 00:30:51;;;;;;;6.85;5.75;;;;;;;-1.96;100.00;102139.31;681678;28;4600;-64
2023/02/28 00:31:12;;;;;;;7.67;6.30;;;;;;;-1.96;100.00;102141.88;679848;29;917;-64
2023/02/28 00:31:32;;;;;;;7.10;6.10;;;;;;;-1.98;100.00;102140.84;679656;29;981;-64
2023/02/28 00:31:53;;;;;;;7.73;5.50;;;;;;;-1.97;100.00;102142.63;679403;29;938;-64
2023/02/28 00:32:13;;;;;;;7.80;5.63;;;;;;;-1.96;100.00;102142.75;682586;29;1562;-63
2023/02/28 00:32:34;;;;;;;7.53;5.90;;;;;;;-1.96;100.00;102150.44;682135;28;1268;-64
2023/02/28 00:32:55;;;;;;;7.70;5.80;;;;;;;-1.96;100.00;102141.88;685235;28;916;-63
2023/02/28 00:33:16;;;;;;;7.93;5.30;;;;;;;-1.97;100.00;102145.19;685789;28;1067;-63
2023/02/28 00:33:36;;;;;;;8.07;5.40;;;;;;;-1.98;100.00;102148.53;686524;28;956;-64
2023/02/28 00:33:56;;;;;;;7.77;5.70;;;;;;;-1.99;100.00;102149.34;685647;28;4539;-64
2023/02/28 00:34:17;;;;;;;8.10;5.33;;;;;;;-2.01;100.00;102143.22;685484;28;931;-63
2023/02/28 00:34:37;;;;;;;7.57;5.30;;;;;;;-2.01;100.00;102146.66;687951;28;853;-63
2023/02/28 00:34:57;;;;;;;7.47;5.13;;;;;;;-2.01;100.00;102140.66;687106;28;961;-63
2023/02/28 00:35:18;;;;;;;8.07;5.30;;;;;;;-2.00;100.00;102139.88;688023;28;873;-63
2023/02/28 00:35:39;;;;;;;7.28;5.00;;;;;;;-2.02;100.00;102143.97;687744;28;793;-63
2023/02/28 00:36:08;;;;;;;7.50;4.70;;;;;;;-1.99;100.00;102146.78;687429;28;1055;-63
2023/02/28 00:36:30;;;;;;;7.00;4.35;;;;;;;-1.98;100.00;102139.19;688036;28;976;-63
2023/02/28 00:36:50;;;;;;;6.90;4.65;;;;;;;-1.97;100.00;102147.75;687307;28;4968;-63
2023/02/28 00:37:14;;;;;;;6.53;4.30;;;;;;;-1.98;100.00;102145.97;685668;28;1156;-63
2023/02/28 00:37:34;;;;;;;6.88;4.10;;;;;;;-1.98;100.00;102145.97;685793;28;1440;-64
2023/02/28 00:37:55;;;;;;;6.18;4.28;;;;;;;-1.99;100.00;102141.66;683147;28;901;-64
2023/02/28 00:38:15;;;;;;;6.90;4.13;;;;;;;-2.01;100.00;102138.06;679399;29;1465;-64
2023/02/28 00:38:37;;;;;;;6.40;4.28;;;;;;;-2.01;100.00;102149.22;680807;29;1219;-64
2023/02/28 00:38:57;;;;;;;6.28;4.10;;;;;;;-2.00;100.00;102145.00;681786;28;1045;-65
2023/02/28 00:39:21;;;;;;;6.68;4.00;;;;;;;-2.01;100.00;102144.09;683268;28;833;-65
2023/02/28 00:39:42;;;;;;;6.75;4.10;;;;;;;-1.99;100.00;102144.22;685449;28;4367;-65
2023/02/28 00:40:06;;;;;;;7.20;3.80;;;;;;;-2.00;100.00;102147.56;687932;28;1233;-64
2023/02/28 00:40:27;;;;;;;7.05;4.05;;;;;;;-2.01;100.00;102140.66;690457;28;873;-64
2023/02/28 00:40:47;;;;;;;7.05;4.05;;;;;;;-2.01;100.00;102148.34;686898;28;1215;-64
2023/02/28 00:41:08;;;;;;;6.73;3.80;;;;;;;-2.03;100.00;102137.97;685014;28;912;-65
2023/02/28 00:41:28;;;;;;;6.63;3.72;;;;;;;-2.00;100.00;102143.31;685247;28;802;-64
2023/02/28 00:41:49;;;;;;;6.07;3.90;;;;;;;-2.00;100.00;102142.44;681163;28;5028;-63
2023/02/28 00:42:09;;;;;;;6.55;4.00;;;;;;;-2.01;100.00;102138.06;682410;28;1481;-64
2023/02/28 00:42:29;;;;;;;7.27;3.83;;;;;;;-2.02;100.00;102143.97;682404;28;1214;-64
2023/02/28 00:42:50;;;;;;;8.68;3.85;;;;;;;-1.99;100.00;102141.66;684310;28;4599;-65
2023/02/28 00:43:11;;;;;;;7.20;4.00;;;;;;;-1.99;100.00;102141.66;686174;28;1579;-64
2023/02/28 00:43:33;;;;;;;6.00;3.80;;;;;;;-2.01;100.00;102146.66;683733;28;1210;-64
2023/02/28 00:43:54;;;;;;;5.72;3.67;;;;;;;-2.01;100.00;102140.66;683753;28;1102;-65
2023/02/28 00:44:14;;;;;;;6.13;3.77;;;;;;;-2.02;100.00;102142.31;685896;28;904;-64
2023/02/28 00:44:34;;;;;;;6.68;3.80;;;;;;;-2.01;100.00;102144.09;684023;28;1271;-66
2023/02/28 00:44:55;;;;;;;6.93;3.90;;;;;;;-2.00;100.00;102140.75;682040;28;1459;-64
2023/02/28 00:45:16;;;;;;;7.15;4.00;;;;;;;-2.00;100.00;102145.00;682745;28;840;-64
2023/02/28 00:45:36;;;;;;;6.82;3.80;;;;;;;-2.03;100.00;102145.66;685094;28;1075;-64
2023/02/28 00:45:58;;;;;;;5.97;3.80;;;;;;;-2.03;100.00;102145.66;684313;28;4309;-64
2023/02/28 00:46:18;;;;;;;6.63;4.00;;;;;;;-2.01;100.00;102138.06;685443;28;967;-64
2023/02/28 00:46:38;;;;;;;6.33;3.83;;;;;;;-2.01;100.00;102143.22;684271;28;996;-65
2023/02/28 00:47:00;;;;;;;5.75;3.78;;;;;;;-2.02;100.00;102139.75;687454;28;1076;-64
2023/02/28 00:47:21;;;;;;;5.90;3.88;;;;;;;-2.04;100.00;102133.63;687442;28;1356;-65
2023/02/28 00:47:41;;;;;;;6.47;3.78;;;;;;;-2.04;100.00;102143.00;682107;28;1538;-64
2023/02/28 00:48:01;;;;;;;6.75;3.83;;;;;;;-2.06;100.00;102141.22;679926;29;992;-64
2023/02/28 00:48:22;;;;;;;6.67;3.90;;;;;;;-2.00;100.00;102134.75;680190;29;934;-65
2023/02/28 00:48:43;;;;;;;6.37;3.73;;;;;;;-2.02;100.00;102138.84;680602;29;4502;-64
2023/02/28 00:49:03;;;;;;;6.27;3.80;;;;;;;-2.06;100.00;102141.22;681734;28;1052;-64
2023/02/28 00:49:24;;;;;;;6.53;3.90;;;;;;;-2.04;100.00;102140.44;681670;28;913;-64
2023/02/28 00:49:44;;;;;;;6.53;3.95;;;;;;;-2.04;100.00;102143.00;680387;28;1681;-65
2023/02/28 00:50:05;;;;;;;5.80;3.80;;;;;;;-1.99;100.00;102142.53;683790;28;1017;-64
2023/02/28 00:50:26;;;;;;;7.00;3.86;;;;;;;-1.99;100.00;102141.66;685210;28;861;-64
2023/02/28 00:50:49;;;;;;;7.27;3.90;;;;;;;-2.01;100.00;102140.66;684251;28;1471;-64
2023/02/28 00:51:09;;;;;;;6.80;3.90;;;;;;;-2.04;100.00;102141.31;684200;28;956;-64
2023/02/28 00:51:30;;;;;;;6.60;3.78;;;;;;;-2.03;100.00;102144.78;680946;28;1144;-64
2023/02/28 00:51:52;;;;;;;6.15;3.70;;;;;;;-2.08;100.00;102141.88;681008;28;4357;-64
2023/02/28 00:52:13;;;;;;;5.90;3.80;;;;;;;-2.06;100.00;102140.34;681808;29;1044;-64
2023/02/28 00:52:33;;;;;;;6.17;3.70;;;;;;;-2.03;100.00;102142.22;682707;28;1083;-64
2023/02/28 00:52:54;;;;;;;6.03;3.70;;;;;;;-2.07;100.00;102141.97;684915;28;1045;-64
2023/02/28 00:53:14;;;;;;;6.73;3.63;;;;;;;-2.09;100.00;102135.88;685574;28;929;-64
2023/02/28 00:53:34;;;;;;;7.87;3.90;;;;;;;-2.04;100.00;102138.75;687587;28;968;-64
2023/02/28 00:53:55;;;;;;;6.57;3.80;;;;;;;-2.03;100.00;102139.66;687396;28;1693;-64
2023/02/28 00:54:18;;;;;;;6.80;4.00;;;;;;;-2.07;100.00;102136.84;687776;28;948;-64
2023/02/28 00:54:41;;;;;;;6.40;3.65;;;;;;;-2.10;100.00;102139.22;686775;28;4618;-66
2023/02/28 00:55:01;;;;;;;6.77;3.93;;;;;;;-2.09;100.00;102142.66;684861;28;1441;-64
2023/02/28 00:55:22;;;;;;;6.20;3.73;;;;;;;-2.03;100.00;102139.66;685169;28;1238;-64
2023/02/28 00:55:43;;;;;;;6.43;3.80;;;;;;;-2.02;100.00;102139.75;682374;28;1040;-64
2023/02/28 00:56:04;;;;;;;5.95;3.70;;;;;;;-2.01;100.00;102138.06;682350;29;1318;-64
2023/02/28 00:56:25;;;;;;;5.82;3.88;;;;;;;-1.98;100.00;102136.63;682563;28;810;-64
2023/02/28 00:56:46;;;;;;;6.00;3.80;;;;;;;-1.97;100.00;102140.06;682799;28;942;-64
2023/02/28 00:57:06;;;;;;;6.33;3.70;;;;;;;-1.98;100.00;102139.19;685084;28;1048;-64
2023/02/28 00:57:26;;;;;;;6.65;3.92;;;;;;;-1.98;100.00;102135.72;682646;28;1241;-63
2023/02/28 00:57:47;;;;;;;6.67;3.93;;;;;;;-2.01;100.00;102138.06;683177;28;4527;-64
2023/02/28 00:58:07;;;;;;;7.20;3.70;;;;;;;-2.02;100.00;102142.31;683773;28;1199;-64
2023/02/28 00:58:28;;;;;;;7.23;3.83;;;;;;;-2.03;100.00;102139.66;682405;29;877;-64
2023/02/28 00:58:48;;;;;;;6.55;3.90;;;;;;;-2.08;100.00;102142.78;682015;29;970;-63
2023/02/28 00:59:08;;;;;;;6.33;4.03;;;;;;;-2.10;100.00;102144.34;682638;28;937;-64
2023/02/28 00:59:29;;;;;;;6.53;3.97;;;;;;;-2.09;100.00;102140.09;685136;28;1107;-64
2023/02/28 00:59:49;;;;;;;6.70;3.90;;;;;;;-2.11;100.00;102139.97;684545;28;972;-64
2023/02/28 01:00:10;;;;;;;7.33;4.13;;;;;;;-2.15;100.00;102140.56;686699;28;1011;-64
2023/02/28 01:00:31;;;;;;;6.75;3.92;;;;;;;-2.13;100.00;102141.56;688003;28;1159;-64
2023/02/28 01:00:52;;;;;;;6.17;3.77;;;;;;;-2.13;100.00;102140.66;687363;28;4492;-64
2023/02/28 01:01:12;;;;;;;6.10;3.83;;;;;;;-2.09;100.00;102150.34;687991;28;1155;-64
2023/02/28 01:01:33;;;;;;;6.00;3.63;;;;;;;-2.10;100.00;102146.03;685855;28;1261;-64
2023/02/28 01:01:53;;;;;;;6.53;3.80;;;;;;;-2.03;100.00;102144.78;686187;28;1347;-64
2023/02/28 01:02:15;;;;;;;6.60;4.00;;;;;;;-2.04;100.00;102138.75;684746;28;1225;-64
2023/02/28 01:02:36;;;;;;;7.20;4.27;;;;;;;-2.05;100.00;102142.09;683898;28;1063;-64
2023/02/28 01:02:56;;;;;;;7.15;4.28;;;;;;;-2.10;100.00;102143.47;680952;29;1584;-64
2023/02/28 01:03:18;;;;;;;6.57;4.00;;;;;;;-2.10;100.00;102139.22;680986;29;989;-64
2023/02/28 01:03:38;;;;;;;7.05;3.95;;;;;;;-2.06;100.00;102143.78;680254;29;992;-64
2023/02/28 01:03:58;;;;;;;7.97;4.00;;;;;;;-2.06;100.00;102142.91;678841;28;4354;-64
2023/02/28 01:04:19;;;;;;;7.18;3.83;;;;;;;-2.01;100.00;102141.53;682498;29;1044;-64
2023/02/28 01:04:39;;;;;;;7.80;3.80;;;;;;;-1.91;100.00;102138.84;682754;28;795;-63
2023/02/28 01:05:00;;;;;;;6.10;3.73;;;;;;;-1.93;100.00;102140.38;681374;28;1279;-64
2023/02/28 01:05:23;;;;;;;6.15;3.90;;;;;;;-1.90;100.00;102148.31;682174;29;1434;-63
2023/02/28 01:05:45;;;;;;;6.18;4.15;;;;;;;-1.84;100.00;102142.72;682705;28;1310;-64
2023/02/28 01:06:05;;;;;;;6.32;4.03;;;;;;;-1.88;100.00;102138.16;684931;28;1147;-64
2023/02/28 01:06:26;;;;;;;6.10;4.00;;;;;;;-1.91;100.00;102135.38;684193;28;1371;-64
2023/02/28 01:06:46;;;;;;;7.22;3.90;;;;;;;-1.94;100.00;102140.28;682365;28;4393;-64
2023/02/28 01:07:06;;;;;;;7.07;3.80;;;;;;;-1.99;100.00;102141.66;683951;28;1922;-64
2023/02/28 01:07:27;;;;;;;6.95;4.05;;;;;;;-1.98;100.00;102143.41;687749;28;823;-64
2023/02/28 01:07:48;;;;;;;7.43;4.10;;;;;;;-1.87;100.00;102142.47;685350;28;1580;-64
2023/02/28 01:08:08;;;;;;;6.78;3.70;;;;;;;-1.88;100.00;102145.84;685136;28;850;-64
2023/02/28 01:08:28;;;;;;;7.90;3.80;;;;;;;-1.84;100.00;102142.72;688739;28;1289;-64
2023/02/28 01:08:49;;;;;;;7.00;3.72;;;;;;;-1.91;100.00;102149.09;684803;28;1132;-64
2023/02/28 01:09:10;;;;;;;6.43;4.00;;;;;;;-1.95;100.00;102143.63;686165;28;817;-64
2023/02/28 01:09:30;;;;;;;7.78;4.25;;;;;;;-1.94;100.00;102142.84;682332;28;1057;-64
2023/02/28 01:09:52;;;;;;;7.75;3.92;;;;;;;-1.88;100.00;102143.28;684453;28;4536;-63
2023/02/28 01:10:12;;;;;;;6.60;3.77;;;;;;;-1.88;100.00;102145.84;684824;28;813;-63
2023/02/28 01:10:33;;;;;;;6.97;3.80;;;;;;;-1.87;100.00;102142.47;685596;28;1127;-63
2023/02/28 01:10:54;;;;;;;7.65;4.40;;;;;;;-1.85;100.00;102148.63;687639;28;884;-64
2023/02/28 01:11:18;;;;;;;7.85;4.28;;;;;;;-1.94;100.00;102143.75;687970;28;1076;-64
2023/02/28 01:11:41;;;;;;;7.88;4.50;;;;;;;-1.96;100.00;102141.88;687699;28;832;-64
2023/02/28 01:12:01;;;;;;;11.32;5.95;;;;;;;-1.94;100.00;102151.44;687275;28;849;-64
2023/02/28 01:12:22;;;;;;;11.83;6.37;;;;;;;-1.98;100.00;102140.84;687362;28;878;-64
2023/02/28 01:12:42;;;;;;;11.23;5.80;;;;;;;-1.93;100.00;102145.50;685377;28;4470;-64
2023/02/28 01:13:02;;;;;;;10.77;5.80;;;;;;;-1.94;100.00;102140.28;683967;28;1209;-64
2023/02/28 01:13:25;;;;;;;10.65;5.70;;;;;;;-1.95;100.00;102139.41;680889;29;1175;-64
2023/02/28 01:13:46;;;;;;;9.70;5.53;;;;;;;-1.98;100.00;102145.97;680824;29;906;-63
2023/02/28 01:14:06;;;;;;;8.88;5.30;;;;;;;-1.99;100.00;102146.78;681908;29;1206;-64
2023/02/28 01:14:26;;;;;;;7.60;4.50;;;;;;;-1.91;100.00;102143.06;681210;28;909;-64
2023/02/28 01:14:47;;;;;;;8.13;5.00;;;;;;;-1.93;100.00;102144.63;684788;28;1182;-63
2023/02/28 01:15:10;;;;;;;8.97;5.10;;;;;;;-1.97;100.00;102143.50;687925;28;857;-64
2023/02/28 01:15:32;;;;;;;8.50;4.75;;;;;;;-1.97;100.00;102143.50;686523;28;1248;-64
2023/02/28 01:15:55;;;;;;;9.85;4.97;;;;;;;-2.01;100.00;102148.34;686564;28;4376;-63
2023/02/28 01:16:16;;;;;;;8.98;5.30;;;;;;;-1.97;100.00;102142.63;686747;28;1206;-64
2023/02/28 01:16:36;;;;;;;8.85;5.72;;;;;;;-2.00;100.00;102148.44;686592;28;821;-64
2023/02/28 01:16:57;;;;;;;9.23;5.60;;;;;;;-2.04;100.00;102143.00;684665;28;1211;-64
2023/02/28 01:17:19;;;;;;;10.23;5.38;;;;;;;-2.04;100.00;102145.56;680665;28;1527;-64
2023/02/28 01:17:39;;;;;;;9.27;5.23;;;;;;;-2.09;100.00;102138.44;682439;29;841;-64
2023/02/28 01:18:00;;;;;;;9.27;5.30;;;;;;;-2.10;100.00;102143.47;679417;28;1041;-64
2023/02/28 01:18:20;;;;;;;8.77;5.38;;;;;;;-2.13;100.00;102138.09;679906;29;976;-64
2023/02/28 01:18:41;;;;;;;9.30;5.13;;;;;;;-2.15;100.00;102143.13;678959;28;4365;-65
2023/02/28 01:19:01;;;;;;;9.73;5.30;;;;;;;-2.12;100.00;102147.56;683068;28;769;-63
2023/02/28 01:19:22;;;;;;;7.15;4.60;;;;;;;-2.12;100.00;102143.34;683380;28;3525;-64
2023/02/28 01:19:42;;;;;;;8.07;5.23;;;;;;;-2.12;100.00;102143.34;682436;28;1321;-64
2023/02/28 01:20:04;;;;;;;9.25;5.32;;;;;;;-2.14;100.00;102142.34;683207;28;869;-64
2023/02/28 01:20:24;;;;;;;7.97;5.53;;;;;;;-2.10;100.00;102146.03;682914;28;1225;-64
2023/02/28 01:20:46;;;;;;;7.40;5.07;;;;;;;-2.11;100.00;102141.66;681934;28;946;-63
2023/02/28 01:21:08;;;;;;;8.02;4.70;;;;;;;-2.14;100.00;102142.34;680023;28;1048;-63
2023/02/28 01:21:29;;;;;;;8.40;5.22;;;;;;;-2.17;100.00;102142.13;682276;29;1353;-64
2023/02/28 01:21:50;;;;;;;8.93;4.90;;;;;;;-2.18;100.00;102140.34;681300;28;4773;-64
2023/02/28 01:22:10;;;;;;;9.13;5.03;;;;;;;-2.17;100.00;102144.69;684246;28;917;-63
2023/02/28 01:22:30;;;;;;;8.93;5.00;;;;;;;-2.21;100.00;102149.50;685128;28;814;-64
2023/02/28 01:22:51;;;;;;;8.13;4.93;;;;;;;-2.19;100.00;102142.81;685062;28;1253;-64
2023/02/28 01:23:11;;;;;;;8.00;4.83;;;;;;;-2.19;100.00;102141.13;687596;28;924;-64
2023/02/28 01:23:32;;;;;;;8.15;4.85;;;;;;;-2.21;100.00;102139.25;687832;28;1293;-63
2023/02/28 01:23:56;;;;;;;8.52;4.95;;;;;;;-2.22;100.00;102143.47;684583;28;882;-63
2023/02/28 01:24:17;;;;;;;7.10;4.80;;;;;;;-2.23;100.00;102137.47;685753;28;868;-64
2023/02/28 01:24:38;;;;;;;7.65;4.80;;;;;;;-2.19;100.00;102141.13;687501;28;1012;-64
2023/02/28 01:24:59;;;;;;;7.93;4.60;;;;;;;-2.18;100.00;102142.91;686236;28;4341;-63
2023/02/28 01:25:19;;;;;;;8.23;4.90;;;;;;;-2.15;100.00;102137.13;685066;28;1197;-63
2023/02/28 01:25:39;;;;;;;7.50;4.40;;;;;;;-2.17;100.00;102142.13;685925;28;856;-63
2023/02/28 01:26:05;;;;;;;7.10;4.28;;;;;;;-2.19;100.00;102143.69;682173;29;1172;-64
2023/02/28 01:26:26;;;;;;;7.45;4.53;;;;;;;-2.22;100.00;102140.91;679609;29;1074;-63
2023/02/28 01:26:46;;;;;;;7.17;4.57;;;;;;;-2.25;100.00;102140.69;679276;29;1023;-63
2023/02/28 01:27:06;;;;;;;6.73;4.43;;;;;;;-2.27;100.00;102139.69;680199;29;1985;-63
2023/02/28 01:27:28;;;;;;;6.97;4.73;;;;;;;-2.30;100.00;102139.47;680376;29;852;-62
2023/02/28 01:27:48;;;;;;;6.30;4.45;;;;;;;-2.30;100.00;102145.50;680870;28;4454;-63
2023/02/28 01:28:08;;;;;;;6.38;4.43;;;;;;;-2.31;100.00;102137.69;684915;28;1072;-64
2023/02/28 01:28:29;;;;;;;6.47;4.50;;;;;;;-2.31;100.00;102137.69;686173;28;1394;-64
2023/02/28 01:28:52;;;;;;;7.47;4.75;;;;;;;-2.30;100.00;102144.59;684622;28;914;-64
2023/02/28 01:29:12;;;;;;;7.68;4.32;;;;;;;-2.31;100.00;102137.69;684956;28;820;-64
2023/02/28 01:29:32;;;;;;;8.13;4.20;;;;;;;-2.31;100.00;102142.81;685452;28;805;-63
2023/02/28 01:29:53;;;;;;;7.07;4.17;;;;;;;-2.32;100.00;102141.06;682881;28;1150;-64
2023/02/28 01:30:14;;;;;;;6.68;4.43;;;;;;;-2.33;100.00;102135.00;684955;28;944;-64
2023/02/28 01:30:34;;;;;;;7.10;4.50;;;;;;;-2.27;100.00;102139.69;685545;28;809;-64
2023/02/28 01:30:55;;;;;;;7.13;4.30;;;;;;;-2.29;100.00;102144.69;682526;28;4518;-64
2023/02/28 01:31:15;;;;;;;7.20;4.17;;;;;;;-2.26;100.00;102141.47;680614;28;1076;-64
2023/02/28 01:31:35;;;;;;;7.97;4.40;;;;;;;-2.29;100.00;102133.56;680575;29;1143;-64
2023/02/28 01:31:56;;;;;;;6.93;4.33;;;;;;;-2.28;100.00;102143.94;682266;28;910;-64
2023/02/28 01:32:17;;;;;;;7.32;4.38;;;;;;;-2.28;100.00;102143.94;680637;29;881;-64
2023/02/28 01:32:37;;;;;;;6.70;4.28;;;;;;;-2.29;100.00;102131.88;681590;29;988;-64
2023/02/28 01:32:58;;;;;;;6.07;4.10;;;;;;;-2.27;100.00;102144.81;679970;28;1404;-63
2023/02/28 01:33:19;;;;;;;5.72;3.83;;;;;;;-2.30;100.00;102136.91;681981;28;1116;-64
2023/02/28 01:33:40;;;;;;;5.63;3.80;;;;;;;-2.32;100.00;102141.06;681931;28;4439;-64
2023/02/28 01:34:00;;;;;;;6.00;4.40;;;;;;;-2.34;100.00;102137.47;679666;29;952;-64
2023/02/28 01:34:22;;;;;;;7.00;4.30;;;;;;;-2.38;100.00;102131.25;681658;28;946;-64
2023/02/28 01:34:43;;;;;;;7.90;4.40;;;;;;;-2.30;100.00;102142.94;682172;28;914;-64
2023/02/28 01:35:03;;;;;;;6.07;4.50;;;;;;;-2.29;100.00;102141.25;684649;28;1263;-63
2023/02/28 01:35:24;;;;;;;6.30;4.40;;;;;;;-2.26;100.00;102136.34;686636;28;809;-64
2023/02/28 01:35:44;;;;;;;6.80;4.60;;;;;;;-2.19;100.00;102138.56;684982;28;1483;-64
2023/02/28 01:36:09;;;;;;;5.87;4.40;;;;;;;-2.21;100.00;102145.25;686161;28;797;-64
2023/02/28 01:36:30;;;;;;;6.00;4.38;;;;;;;-2.25;100.00;102133.00;683821;28;1525;-64
2023/02/28 01:36:50;;;;;;;7.90;4.40;;;;;;;-2.29;100.00;102134.44;682083;28;4510;-64
2023/02/28 01:37:10;;;;;;;7.28;4.28;;;;;;;-2.27;100.00;102143.16;685123;28;944;-64
2023/02/28 01:37:31;;;;;;;7.67;4.40;;;;;;;-2.27;100.00;102140.59;685841;28;912;-63
2023/02/28 01:37:51;;;;;;;6.88;4.30;;;;;;;-2.28;100.00;102137.94;685086;28;1296;-64
2023/02/28 01:38:12;;;;;;;6.10;3.90;;;;;;;-2.29;100.00;102144.69;685121;28;1032;-63
2023/02/28 01:38:33;;;;;;;7.30;4.23;;;;;;;-2.29;100.00;102136.13;685863;28;1169;-63
2023/02/28 01:38:54;;;;;;;6.80;4.40;;;;;;;-2.27;100.00;102147.38;684987;28;959;-64
2023/02/28 01:39:14;;;;;;;6.70;4.20;;;;;;;-2.28;100.00;102140.47;685093;28;810;-63
2023/02/28 01:39:35;;;;;;;5.97;3.90;;;;;;;-2.29;100.00;102139.56;685036;28;1575;-64